createdAt,value
2023-03-17T00:00:39.271Z,76.70
2023-03-17T00:03:22.268Z,81.40
2023-03-17T00:05:50.264Z,93.00
2023-03-17T00:08:23.175Z,83.10
2023-03-17T00:10:51.779Z,89.30
2023-03-17T00:13:19.714Z,93.00
2023-03-17T00:15:52.352Z,76.40
2023-03-17T00:18:20.540Z,96.50
2023-03-17T00:20:48.907Z,100.20
2023-03-17T00:23:24.458Z,98.40
2023-03-17T00:25:54.374Z,102.40
2023-03-17T00:28:24.121Z,93.10
2023-03-17T00:30:56.506Z,88.10
2023-03-17T00:33:26.834Z,90.00
2023-03-17T00:35:55.323Z,90.50
2023-03-17T00:38:24.481Z,98.20
2023-03-17T00:40:52.389Z,104.90
2023-03-17T00:43:23.259Z,119.60
2023-03-17T00:45:51.516Z,125.70
2023-03-17T00:48:20.847Z,120.30
2023-03-17T00:50:49.799Z,111.40
2023-03-17T00:53:19.650Z,116.90
2023-03-17T00:55:48.044Z,121.70
2023-03-17T00:58:19.290Z,109.40
2023-03-17T01:00:47.553Z,130.90
2023-03-17T01:03:15.668Z,108.00
2023-03-17T01:05:43.554Z,108.00
2023-03-17T01:08:12.070Z,113.60
2023-03-17T01:10:42.796Z,105.80
2023-03-17T01:13:12.365Z,133.00
2023-03-17T01:15:44.519Z,145.10
2023-03-17T01:18:14.646Z,116.90
2023-03-17T01:20:42.799Z,134.70
2023-03-17T01:23:10.879Z,119.70
2023-03-17T01:25:53.291Z,138.20
2023-03-17T01:28:32.040Z,125.80
2023-03-17T01:31:00.637Z,125.70
2023-03-17T01:33:29.136Z,126.60
2023-03-17T01:35:56.888Z,125.80
2023-03-17T01:38:24.777Z,119.40
2023-03-17T01:40:53.688Z,132.40
2023-03-17T01:43:23.886Z,127.80
2023-03-17T01:46:22.804Z,127.20
2023-03-17T01:49:15.719Z,145.80
2023-03-17T01:51:52.666Z,137.10
2023-03-17T01:54:37.319Z,136.50
2023-03-17T01:57:10.764Z,145.00
2023-03-17T01:59:42.369Z,145.40
2023-03-17T02:02:11.196Z,137.40
2023-03-17T02:04:40.377Z,152.40
2023-03-17T02:07:08.451Z,152.90
2023-03-17T02:09:38.719Z,147.70
2023-03-17T02:12:07.057Z,154.40
2023-03-17T02:14:36.644Z,143.70
2023-03-17T02:17:04.590Z,141.30
2023-03-17T02:19:32.447Z,140.50
2023-03-17T02:22:00.372Z,169.90
2023-03-17T02:24:31.011Z,146.40
2023-03-17T02:27:03.738Z,127.40
2023-03-17T02:29:34.180Z,143.30
2023-03-17T02:32:02.759Z,132.90
2023-03-17T02:34:31.845Z,131.20
2023-03-17T02:36:59.770Z,128.80
2023-03-17T02:39:28.092Z,135.20
2023-03-17T02:41:56.052Z,121.80
2023-03-17T02:44:24.040Z,121.10
2023-03-17T02:46:54.450Z,129.40
2023-03-17T02:49:22.817Z,111.80
2023-03-17T02:51:50.748Z,120.00
2023-03-17T02:54:19.395Z,99.50
2023-03-17T02:56:47.166Z,111.20
2023-03-17T02:59:14.976Z,103.30
2023-03-17T03:01:44.070Z,103.20
2023-03-17T03:04:12.041Z,82.50
2023-03-17T03:06:42.762Z,113.20
2023-03-17T03:09:11.926Z,93.40
2023-03-17T03:11:39.862Z,102.40
2023-03-17T03:14:08.229Z,74.40
2023-03-17T03:16:36.147Z,76.60
2023-03-17T03:19:04.606Z,82.20
2023-03-17T03:21:32.601Z,64.80
2023-03-17T03:24:00.388Z,61.30
2023-03-17T03:26:28.470Z,64.50
2023-03-17T03:28:58.517Z,70.90
2023-03-17T03:31:26.816Z,68.20
2023-03-17T03:33:54.673Z,65.10
2023-03-17T03:36:22.623Z,69.10
2023-03-17T03:38:50.489Z,66.50
2023-03-17T03:41:18.378Z,62.60
2023-03-17T03:43:46.332Z,53.10
2023-03-17T03:46:15.723Z,51.70
2023-03-17T03:48:43.743Z,50.00
2023-03-17T03:51:11.562Z,53.80
2023-03-17T03:53:39.375Z,47.00
2023-03-17T03:56:07.618Z,53.30
2023-03-17T03:58:35.772Z,53.00
2023-03-17T04:01:05.374Z,54.60
2023-03-17T04:03:33.557Z,53.00
2023-03-17T04:06:01.397Z,55.40
2023-03-17T04:08:29.612Z,62.80
2023-03-17T04:10:58.009Z,59.40
2023-03-17T04:13:25.781Z,57.90
2023-03-17T04:15:53.627Z,46.60
2023-03-17T04:18:21.749Z,48.30
2023-03-17T04:20:49.579Z,58.40
2023-03-17T04:23:17.595Z,61.10
2023-03-17T04:25:46.101Z,93.70
2023-03-17T04:28:14.323Z,87.50
2023-03-17T04:30:42.564Z,75.00
2023-03-17T04:33:10.904Z,74.90
2023-03-17T04:35:38.950Z,55.60
2023-03-17T04:38:07.461Z,72.40
2023-03-17T04:40:35.838Z,62.40
2023-03-17T04:43:04.224Z,71.60
2023-03-17T04:45:32.770Z,62.90
2023-03-17T04:48:01.020Z,86.60
2023-03-17T04:50:29.702Z,64.90
2023-03-17T04:52:58.020Z,63.00
2023-03-17T04:55:26.227Z,74.10
2023-03-17T04:57:54.399Z,91.70
2023-03-17T05:00:25.837Z,93.10
2023-03-17T05:02:54.111Z,60.80
2023-03-17T05:05:22.280Z,64.20
2023-03-17T05:07:50.533Z,48.70
2023-03-17T05:10:18.761Z,68.70
2023-03-17T05:12:47.409Z,89.00
2023-03-17T05:15:16.034Z,69.50
2023-03-17T05:17:44.172Z,65.10
2023-03-17T05:20:12.784Z,60.60
2023-03-17T05:22:41.006Z,44.60
2023-03-17T05:25:09.325Z,42.00
2023-03-17T05:27:39.924Z,41.80
2023-03-17T05:30:09.599Z,43.10
2023-03-17T05:32:37.737Z,46.40
2023-03-17T05:35:06.281Z,43.60
2023-03-17T05:37:35.027Z,41.20
2023-03-17T05:40:03.603Z,49.10
2023-03-17T05:42:31.823Z,44.00
2023-03-17T05:45:00.193Z,47.50
2023-03-17T05:47:28.515Z,44.40
2023-03-17T05:49:57.104Z,44.10
2023-03-17T05:52:25.218Z,46.90
2023-03-17T05:54:53.660Z,52.60
2023-03-17T05:57:21.978Z,47.00
2023-03-17T05:59:51.142Z,44.80
2023-03-17T06:02:19.336Z,45.00
2023-03-17T06:04:47.451Z,44.90
2023-03-17T06:07:15.475Z,46.80
2023-03-17T06:09:43.602Z,49.00
2023-03-17T06:12:11.652Z,45.10
2023-03-17T06:14:39.857Z,49.80
2023-03-17T06:17:08.482Z,43.70
2023-03-17T06:19:36.619Z,43.90
2023-03-17T06:22:04.796Z,42.60
2023-03-17T06:24:33.502Z,38.40
2023-03-17T06:27:01.570Z,35.50
2023-03-17T06:29:30.220Z,43.40
2023-03-17T06:32:06.322Z,41.20
2023-03-17T06:34:45.445Z,35.90
2023-03-17T06:37:13.447Z,35.80
2023-03-17T06:39:42.456Z,42.90
2023-03-17T06:42:10.473Z,36.40
2023-03-17T06:44:38.688Z,39.00
2023-03-17T06:47:06.933Z,35.30
2023-03-17T06:49:34.982Z,34.90
2023-03-17T06:52:03.128Z,36.00
2023-03-17T06:54:31.779Z,36.40
2023-03-17T06:56:59.923Z,33.70
2023-03-17T06:59:28.137Z,33.30
2023-03-17T07:01:56.471Z,38.00
2023-03-17T07:04:24.545Z,36.40
2023-03-17T07:06:52.565Z,36.30
2023-03-17T07:09:21.036Z,42.20
2023-03-17T07:11:49.786Z,39.00
2023-03-17T07:14:18.834Z,43.00
2023-03-17T07:16:48.649Z,33.20
2023-03-17T07:19:16.862Z,40.00
2023-03-17T07:21:46.897Z,36.50
2023-03-17T07:24:15.399Z,33.30
2023-03-17T07:26:43.786Z,29.30
2023-03-17T07:29:11.849Z,31.30
2023-03-17T07:31:39.953Z,28.60
2023-03-17T07:34:08.005Z,32.00
2023-03-17T07:36:36.107Z,30.40
2023-03-17T07:39:04.243Z,27.80
2023-03-17T07:41:32.237Z,30.20
2023-03-17T07:44:00.776Z,37.20
2023-03-17T07:46:28.958Z,26.90
2023-03-17T07:48:57.032Z,30.50
2023-03-17T07:51:28.343Z,32.10
2023-03-17T07:54:03.896Z,31.80
2023-03-17T07:56:32.388Z,33.10
2023-03-17T07:59:00.429Z,29.90
2023-03-17T08:01:28.520Z,28.40
2023-03-17T08:03:56.757Z,30.90
2023-03-17T08:06:27.885Z,30.40
2023-03-17T08:08:55.932Z,28.30
2023-03-17T08:11:24.231Z,30.20
2023-03-17T08:13:53.626Z,28.10
2023-03-17T08:16:22.194Z,26.60
2023-03-17T08:18:50.178Z,27.00
2023-03-17T08:21:18.164Z,25.40
2023-03-17T08:23:47.463Z,28.30
2023-03-17T08:26:16.071Z,27.70
2023-03-17T08:28:44.997Z,27.50
2023-03-17T08:31:15.449Z,32.90
2023-03-17T08:33:46.256Z,28.50
2023-03-17T08:36:18.032Z,27.80
2023-03-17T08:38:46.760Z,28.00
2023-03-17T08:41:17.072Z,24.10
2023-03-17T08:43:45.563Z,24.10
2023-03-17T08:46:22.185Z,25.70
2023-03-17T08:48:51.241Z,25.10
2023-03-17T08:51:22.084Z,21.70
2023-03-17T08:53:52.081Z,21.90
2023-03-17T08:56:20.121Z,22.50
2023-03-17T08:58:48.390Z,23.70
2023-03-17T09:01:16.762Z,24.50
2023-03-17T09:03:45.723Z,20.80
2023-03-17T09:06:13.789Z,19.00
2023-03-17T09:08:45.203Z,24.60
2023-03-17T09:11:18.075Z,22.40
2023-03-17T09:13:46.618Z,23.60
2023-03-17T09:16:14.915Z,21.10
2023-03-17T09:18:43.202Z,20.50
2023-03-17T09:21:12.154Z,16.10
2023-03-17T09:23:40.330Z,20.00
2023-03-17T09:26:09.220Z,20.00
2023-03-17T09:28:37.480Z,17.30
2023-03-17T09:31:06.401Z,17.60
2023-03-17T09:33:34.727Z,17.20
2023-03-17T09:36:02.742Z,16.30
2023-03-17T09:38:31.959Z,16.50
2023-03-17T09:41:02.641Z,15.80
2023-03-17T09:43:52.755Z,16.40
2023-03-17T09:46:23.659Z,16.90
2023-03-17T09:49:12.702Z,18.00
2023-03-17T09:51:40.842Z,19.20
2023-03-17T09:54:22.046Z,14.80
2023-03-17T09:56:54.062Z,19.40
2023-03-17T09:59:22.067Z,20.50
2023-03-17T10:01:50.421Z,17.90
2023-03-17T10:04:18.984Z,17.80
2023-03-17T10:06:48.446Z,16.50
2023-03-17T10:09:42.870Z,17.50
2023-03-17T10:12:32.459Z,20.50
2023-03-17T10:15:06.901Z,18.90
2023-03-17T10:17:35.846Z,19.30
2023-03-17T10:20:17.987Z,18.90
2023-03-17T10:22:50.465Z,16.20
2023-03-17T10:25:22.361Z,19.80
2023-03-17T10:27:57.801Z,18.90
2023-03-17T10:30:26.176Z,15.60
2023-03-17T10:32:56.321Z,16.90
2023-03-17T10:35:24.641Z,14.40
2023-03-17T10:38:04.394Z,17.60
2023-03-17T10:40:40.587Z,13.50
2023-03-17T10:43:14.434Z,13.80
2023-03-17T10:45:47.949Z,14.60
2023-03-17T10:48:19.305Z,14.10
2023-03-17T10:50:49.296Z,18.00
2023-03-17T10:53:19.681Z,13.60
2023-03-17T10:55:52.056Z,16.70
2023-03-17T10:58:22.633Z,15.10
2023-03-17T11:01:00.167Z,12.70
2023-03-17T11:03:30.126Z,14.80
2023-03-17T11:06:02.457Z,17.20
2023-03-17T11:08:41.716Z,16.90
2023-03-17T11:11:21.354Z,15.90
2023-03-17T11:13:49.380Z,15.40
2023-03-17T11:16:22.543Z,15.60
2023-03-17T11:18:58.046Z,15.50
2023-03-17T11:21:52.383Z,16.60
2023-03-17T11:24:25.385Z,12.10
2023-03-17T11:27:17.982Z,20.80
2023-03-17T11:30:17.566Z,16.00
2023-03-17T11:32:48.111Z,17.60
2023-03-17T11:35:25.178Z,15.00
2023-03-17T11:38:21.075Z,14.40
2023-03-17T11:41:05.054Z,16.90
2023-03-17T11:43:44.061Z,14.70
2023-03-17T11:46:44.426Z,17.10
2023-03-17T11:49:24.349Z,12.90
2023-03-17T11:52:12.408Z,10.60
2023-03-17T11:54:54.368Z,15.60
2023-03-17T11:57:25.495Z,16.00
2023-03-17T12:00:00.051Z,15.00
2023-03-17T12:02:30.984Z,15.00
2023-03-17T12:05:10.961Z,16.20
2023-03-17T12:07:58.370Z,16.40
2023-03-17T12:10:35.008Z,15.80
2023-03-17T12:13:07.580Z,14.30
2023-03-17T12:15:43.719Z,13.90
2023-03-17T12:18:16.197Z,13.10
2023-03-17T12:20:58.994Z,15.60
2023-03-17T12:23:49.793Z,14.10
2023-03-17T12:26:32.092Z,15.50
2023-03-17T12:29:15.591Z,12.50
2023-03-17T12:32:05.784Z,15.70
2023-03-17T12:34:44.779Z,13.80
2023-03-17T12:37:13.072Z,13.50
2023-03-17T12:39:41.345Z,14.60
2023-03-17T12:42:16.696Z,16.10
2023-03-17T12:44:48.001Z,13.80
2023-03-17T12:47:43.125Z,13.60
2023-03-17T12:50:32.934Z,10.40
2023-03-17T12:53:20.122Z,12.00
2023-03-17T12:55:50.129Z,12.30
2023-03-17T12:58:29.650Z,13.60
2023-03-17T13:01:07.253Z,11.60
2023-03-17T13:03:37.269Z,11.50
2023-03-17T13:06:07.688Z,16.10
2023-03-17T13:08:38.160Z,12.00
2023-03-17T13:11:37.561Z,11.80
2023-03-17T13:14:34.182Z,9.80
2023-03-17T13:17:17.942Z,10.00
2023-03-17T13:20:14.571Z,8.90
2023-03-17T13:23:11.520Z,9.50
2023-03-17T13:25:40.105Z,9.40
2023-03-17T13:28:13.939Z,12.60
2023-03-17T13:30:49.680Z,10.50
2023-03-17T13:33:25.037Z,11.00
2023-03-17T13:36:09.523Z,9.70
2023-03-17T13:38:52.515Z,12.40
2023-03-17T13:41:40.772Z,11.00
2023-03-17T13:44:43.358Z,11.00
2023-03-17T13:47:17.436Z,9.90
2023-03-17T13:49:51.484Z,9.10
2023-03-17T13:52:39.626Z,8.90
2023-03-17T13:55:23.859Z,11.20
2023-03-17T13:58:11.704Z,11.70
2023-03-17T14:00:41.861Z,12.20
2023-03-17T14:03:48.980Z,8.60
2023-03-17T14:06:18.890Z,10.10
2023-03-17T14:09:00.011Z,10.20
2023-03-17T14:11:40.681Z,10.40
2023-03-17T14:14:31.473Z,12.30
2023-03-17T14:17:12.249Z,12.00
2023-03-17T14:19:41.934Z,13.10
2023-03-17T14:22:21.553Z,11.00
2023-03-17T14:24:56.180Z,10.50
2023-03-17T14:27:24.299Z,8.90
2023-03-17T14:29:52.517Z,12.50
2023-03-17T14:32:21.717Z,12.20
2023-03-17T14:34:57.707Z,10.10
2023-03-17T14:37:26.133Z,11.40
2023-03-17T14:39:55.771Z,12.60
2023-03-17T14:42:31.568Z,12.80
2023-03-17T14:45:07.455Z,13.40
2023-03-17T14:47:38.970Z,12.70
2023-03-17T14:50:31.059Z,14.00
2023-03-17T14:52:59.886Z,13.50
2023-03-17T14:55:43.329Z,17.40
2023-03-17T14:58:28.918Z,11.90
2023-03-17T15:01:02.653Z,12.80
2023-03-17T15:03:31.895Z,11.90
2023-03-17T15:06:28.117Z,17.10
2023-03-17T15:09:00.682Z,12.50
2023-03-17T15:11:38.277Z,14.60
2023-03-17T15:14:22.152Z,13.40
2023-03-17T15:16:51.506Z,13.10
2023-03-17T15:19:21.429Z,14.80
2023-03-17T15:21:49.690Z,11.40
2023-03-17T15:24:39.745Z,11.10
2023-03-17T15:27:14.979Z,14.60
2023-03-17T15:29:43.195Z,11.40
2023-03-17T15:32:15.416Z,18.10
2023-03-17T15:34:43.579Z,12.80
2023-03-17T15:37:32.494Z,11.50
2023-03-17T15:40:01.420Z,11.30
2023-03-17T15:42:31.215Z,12.20
2023-03-17T15:45:02.861Z,13.90
2023-03-17T15:47:37.071Z,12.20
2023-03-17T15:50:16.214Z,12.90
2023-03-17T15:52:44.785Z,12.50
2023-03-17T15:55:19.319Z,11.80
2023-03-17T15:57:54.748Z,14.90
2023-03-17T16:00:24.991Z,12.90
2023-03-17T16:02:56.339Z,10.60
2023-03-17T16:05:26.702Z,13.10
2023-03-17T16:07:55.507Z,13.00
2023-03-17T16:10:28.331Z,17.30
2023-03-17T16:12:56.600Z,15.90
2023-03-17T16:15:26.610Z,11.00
2023-03-17T16:17:55.872Z,12.70
2023-03-17T16:20:36.109Z,16.20
2023-03-17T16:23:14.883Z,15.90
2023-03-17T16:25:43.291Z,13.10
2023-03-17T16:28:16.951Z,11.40
2023-03-17T16:30:46.150Z,11.70
2023-03-17T16:33:22.638Z,14.20
2023-03-17T16:35:52.613Z,13.10
2023-03-17T16:38:22.658Z,14.70
2023-03-17T16:40:55.314Z,14.10
2023-03-17T16:43:26.567Z,14.20
2023-03-17T16:45:56.516Z,11.40
2023-03-17T16:48:24.963Z,12.30
2023-03-17T16:50:53.347Z,12.80
2023-03-17T16:53:21.604Z,15.50
2023-03-17T16:55:50.304Z,13.60
2023-03-17T16:58:26.332Z,13.60
2023-03-17T17:00:57.646Z,13.60
2023-03-17T17:03:25.989Z,11.30
2023-03-17T17:05:54.176Z,13.80
2023-03-17T17:08:22.737Z,12.90
2023-03-17T17:10:51.559Z,13.80
2023-03-17T17:13:19.833Z,15.60
2023-03-17T17:15:48.040Z,16.50
2023-03-17T17:18:27.200Z,15.60
2023-03-17T17:20:57.113Z,13.30
2023-03-17T17:23:26.829Z,13.50
2023-03-17T17:25:55.011Z,15.60
2023-03-17T17:28:23.796Z,16.00
2023-03-17T17:30:52.251Z,18.90
2023-03-17T17:33:20.461Z,20.10
2023-03-17T17:35:48.876Z,20.90
2023-03-17T17:38:26.829Z,20.50
2023-03-17T17:41:02.485Z,20.10
2023-03-17T17:43:30.614Z,23.00
2023-03-17T17:45:58.566Z,19.20
2023-03-17T17:48:27.118Z,24.20
2023-03-17T17:50:56.203Z,17.60
2023-03-17T17:53:24.420Z,18.20
2023-03-17T17:55:52.533Z,18.50
2023-03-17T17:58:24.517Z,19.20
2023-03-17T18:00:55.726Z,19.20
2023-03-17T18:03:25.432Z,21.40
2023-03-17T18:05:54.334Z,17.80
2023-03-17T18:08:23.130Z,20.10
2023-03-17T18:10:52.277Z,19.80
2023-03-17T18:13:20.557Z,17.80
2023-03-17T18:15:49.666Z,17.60
2023-03-17T18:18:17.657Z,21.40
2023-03-17T18:20:45.661Z,17.40
2023-03-17T18:23:13.722Z,20.70
2023-03-17T18:25:41.724Z,17.90
2023-03-17T18:28:09.794Z,18.40
2023-03-17T18:30:38.383Z,17.00
2023-03-17T18:33:09.480Z,21.20
2023-03-17T18:35:37.638Z,24.70
2023-03-17T18:38:05.805Z,16.90
2023-03-17T18:40:34.208Z,19.10
2023-03-17T18:43:02.450Z,20.90
2023-03-17T18:45:30.386Z,18.90
2023-03-17T18:47:58.274Z,18.50
2023-03-17T18:50:26.619Z,16.10
2023-03-17T18:52:55.878Z,17.00
2023-03-17T18:55:23.815Z,18.10
2023-03-17T18:57:52.192Z,15.70
2023-03-17T19:00:20.436Z,16.40
2023-03-17T19:02:48.558Z,21.40
2023-03-17T19:05:16.674Z,16.60
2023-03-17T19:07:44.747Z,19.10
2023-03-17T19:10:12.775Z,18.90
2023-03-17T19:12:41.197Z,16.20
2023-03-17T19:15:10.791Z,17.60
2023-03-17T19:17:39.568Z,16.40
2023-03-17T19:20:08.285Z,14.50
2023-03-17T19:22:36.383Z,18.00
2023-03-17T19:25:04.531Z,17.40
2023-03-17T19:27:33.438Z,18.70
2023-03-17T19:30:01.765Z,15.70
2023-03-17T19:32:29.867Z,15.40
2023-03-17T19:34:57.907Z,19.80
2023-03-17T19:37:26.215Z,15.30
2023-03-17T19:39:54.455Z,14.40
2023-03-17T19:42:22.467Z,13.80
2023-03-17T19:44:50.646Z,17.30
2023-03-17T19:47:18.665Z,13.70
2023-03-17T19:49:47.286Z,18.00
2023-03-17T19:52:15.521Z,18.00
2023-03-17T19:54:46.137Z,18.30
2023-03-17T19:57:14.577Z,18.00
2023-03-17T19:59:43.121Z,17.30
2023-03-17T20:02:13.206Z,20.30
2023-03-17T20:04:41.480Z,23.70
2023-03-17T20:07:09.865Z,26.60
2023-03-17T20:09:38.007Z,32.00
2023-03-17T20:12:06.219Z,21.30
2023-03-17T20:14:34.654Z,18.60
2023-03-17T20:17:02.855Z,18.50
2023-03-17T20:19:31.121Z,19.70
2023-03-17T20:21:59.050Z,27.40
2023-03-17T20:24:29.274Z,29.80
2023-03-17T20:26:59.506Z,22.70
2023-03-17T20:29:28.417Z,18.30
2023-03-17T20:31:56.492Z,19.90
2023-03-17T20:34:24.621Z,16.80
2023-03-17T20:36:52.951Z,19.70
2023-03-17T20:39:21.755Z,24.70
2023-03-17T20:41:50.946Z,23.90
2023-03-17T20:44:19.095Z,24.10
2023-03-17T20:46:48.324Z,17.90
2023-03-17T20:49:17.414Z,16.90
2023-03-17T20:51:46.415Z,19.10
2023-03-17T20:54:14.764Z,19.90
2023-03-17T20:56:43.017Z,19.90
2023-03-17T20:59:19.763Z,16.30
2023-03-17T21:02:18.687Z,21.30
2023-03-17T21:08:34.119Z,14.90
2023-03-17T21:11:02.901Z,16.40
2023-03-17T21:13:31.695Z,17.10
2023-03-17T21:16:00.801Z,15.60
2023-03-17T21:18:29.734Z,18.00
2023-03-17T21:20:57.886Z,15.90
2023-03-17T21:23:27.485Z,17.90
2023-03-17T21:25:56.272Z,15.80
2023-03-17T21:28:24.288Z,18.50
2023-03-17T21:30:52.289Z,18.50
2023-03-17T21:33:21.608Z,19.80
2023-03-17T21:35:50.001Z,18.00
2023-03-17T21:38:18.050Z,24.10
2023-03-17T21:40:46.094Z,19.30
2023-03-17T21:43:15.085Z,22.60
2023-03-17T21:45:44.758Z,19.10
2023-03-17T21:48:12.967Z,22.40
2023-03-17T21:50:41.459Z,18.60
2023-03-17T21:53:10.401Z,22.20
2023-03-17T21:55:38.518Z,19.90
2023-03-17T21:58:08.360Z,19.70
2023-03-17T22:00:45.091Z,17.80
2023-03-17T22:03:14.086Z,19.70
2023-03-17T22:05:42.542Z,22.40
2023-03-17T22:08:11.365Z,20.10
2023-03-17T22:10:40.254Z,22.40
2023-03-17T22:13:08.643Z,16.20
2023-03-17T22:15:37.250Z,22.20
2023-03-17T22:18:06.251Z,18.50
2023-03-17T22:20:34.769Z,19.40
2023-03-17T22:23:03.407Z,22.30
2023-03-17T22:25:31.479Z,19.50
2023-03-17T22:27:59.756Z,15.00
2023-03-17T22:30:27.797Z,26.10
2023-03-17T22:32:55.848Z,19.70
2023-03-17T22:35:25.177Z,18.50
2023-03-17T22:37:53.169Z,22.10
2023-03-17T22:40:21.631Z,22.10
2023-03-17T22:42:49.616Z,21.10
2023-03-17T22:45:17.840Z,21.70
2023-03-17T22:47:46.250Z,21.20
2023-03-17T22:50:14.671Z,25.50
2023-03-17T22:52:42.776Z,23.20
2023-03-17T22:55:10.893Z,18.70
2023-03-17T22:57:41.740Z,19.90
2023-03-17T23:00:19.469Z,21.60
2023-03-17T23:02:57.785Z,20.70
2023-03-17T23:05:32.172Z,19.60
2023-03-17T23:08:05.700Z,23.00
2023-03-17T23:10:33.989Z,22.30
2023-03-17T23:13:01.950Z,20.60
2023-03-17T23:15:30.062Z,21.70
2023-03-17T23:17:58.851Z,22.30
2023-03-17T23:20:26.913Z,21.10
2023-03-17T23:22:58.292Z,20.10
2023-03-17T23:25:26.710Z,18.20
2023-03-17T23:27:54.777Z,21.70
2023-03-17T23:30:22.784Z,16.50
2023-03-17T23:32:50.822Z,20.70
2023-03-17T23:35:19.657Z,22.20
2023-03-17T23:37:47.588Z,21.50
2023-03-17T23:40:17.421Z,17.30
2023-03-17T23:42:49.168Z,20.80
2023-03-17T23:45:18.215Z,16.30
2023-03-17T23:47:46.905Z,15.50
2023-03-17T23:50:15.998Z,20.40
2023-03-17T23:52:44.110Z,23.60
2023-03-17T23:55:12.295Z,18.80
2023-03-17T23:57:40.255Z,20.90
